sensor_id;sensor_type;location;lat;lon;timestamp;temperature;humidity
17053;DHT22;8643;48.824;11.422;2023-01-16T00:04:49;0.90;99.90
17053;DHT22;8643;48.824;11.422;2023-01-16T00:09:46;0.70;99.90
17053;DHT22;8643;48.824;11.422;2023-01-16T00:22:10;0.40;99.90
17053;DHT22;8643;48.824;11.422;2023-01-16T00:27:07;0.30;99.90
17053;DHT22;8643;48.824;11.422;2023-01-16T00:32:04;0.30;99.90
17053;DHT22;8643;48.824;11.422;2023-01-16T00:39:31;0.00;99.90
17053;DHT22;8643;48.824;11.422;2023-01-16T00:41:59;0.00;99.90
17053;DHT22;8643;48.824;11.422;2023-01-16T00:56:52;-0.20;99.90
17053;DHT22;8643;48.824;11.422;2023-01-16T01:09:14;-0.30;99.90
17053;DHT22;8643;48.824;11.422;2023-01-16T01:14:13;-0.10;99.90
17053;DHT22;8643;48.824;11.422;2023-01-16T01:21:38;0.50;99.90
17053;DHT22;8643;48.824;11.422;2023-01-16T01:31:34;0.90;99.90
17053;DHT22;8643;48.824;11.422;2023-01-16T01:41:28;0.50;99.90
17053;DHT22;8643;48.824;11.422;2023-01-16T01:46:29;0.40;99.90
17053;DHT22;8643;48.824;11.422;2023-01-16T01:49:07;0.30;99.90
17053;DHT22;8643;48.824;11.422;2023-01-16T01:59:23;0.10;99.90
17053;DHT22;8643;48.824;11.422;2023-01-16T02:04:29;0.00;99.90
17053;DHT22;8643;48.824;11.422;2023-01-16T02:07:02;0.00;99.90
17053;DHT22;8643;48.824;11.422;2023-01-16T02:12:06;-0.10;99.90
17053;DHT22;8643;48.824;11.422;2023-01-16T02:14:40;-0.10;99.90
17053;DHT22;8643;48.824;11.422;2023-01-16T02:20:14;0.00;99.90
17053;DHT22;8643;48.824;11.422;2023-01-16T02:29:30;-0.10;99.90
17053;DHT22;8643;48.824;11.422;2023-01-16T02:32:25;-0.20;99.90
17053;DHT22;8643;48.824;11.422;2023-01-16T02:43:16;-0.50;99.90
17053;DHT22;8643;48.824;11.422;2023-01-16T02:46:02;-0.50;99.90
17053;DHT22;8643;48.824;11.422;2023-01-16T02:48:43;-0.50;99.90
17053;DHT22;8643;48.824;11.422;2023-01-16T02:51:25;-0.60;99.90
17053;DHT22;8643;48.824;11.422;2023-01-16T02:54:04;-0.60;99.90
17053;DHT22;8643;48.824;11.422;2023-01-16T02:56:42;-0.60;99.90
17053;DHT22;8643;48.824;11.422;2023-01-16T02:59:14;-0.80;99.90
17053;DHT22;8643;48.824;11.422;2023-01-16T03:04:50;-0.80;99.90
17053;DHT22;8643;48.824;11.422;2023-01-16T03:16:04;-0.70;99.90
17053;DHT22;8643;48.824;11.422;2023-01-16T03:18:47;-0.70;99.90
17053;DHT22;8643;48.824;11.422;2023-01-16T03:24:16;-0.70;99.90
17053;DHT22;8643;48.824;11.422;2023-01-16T03:29:40;-0.80;99.90
17053;DHT22;8643;48.824;11.422;2023-01-16T03:32:18;-0.80;99.90
17053;DHT22;8643;48.824;11.422;2023-01-16T03:34:57;-0.90;99.90
17053;DHT22;8643;48.824;11.422;2023-01-16T03:37:34;-0.90;99.90
17053;DHT22;8643;48.824;11.422;2023-01-16T03:40:10;-1.10;99.90
17053;DHT22;8643;48.824;11.422;2023-01-16T03:45:19;-0.90;99.90
17053;DHT22;8643;48.824;11.422;2023-01-16T03:47:54;-1.00;99.90
17053;DHT22;8643;48.824;11.422;2023-01-16T03:53:07;-1.00;99.90
17053;DHT22;8643;48.824;11.422;2023-01-16T03:55:45;-1.00;99.90
17053;DHT22;8643;48.824;11.422;2023-01-16T03:58:22;-1.00;99.90
17053;DHT22;8643;48.824;11.422;2023-01-16T04:01:04;-1.00;99.90
17053;DHT22;8643;48.824;11.422;2023-01-16T04:03:46;-1.00;99.90
17053;DHT22;8643;48.824;11.422;2023-01-16T04:06:28;-1.00;99.90
17053;DHT22;8643;48.824;11.422;2023-01-16T04:09:06;-1.10;99.90
17053;DHT22;8643;48.824;11.422;2023-01-16T04:11:39;-1.20;99.90
17053;DHT22;8643;48.824;11.422;2023-01-16T04:14:09;-1.20;99.90
17053;DHT22;8643;48.824;11.422;2023-01-16T04:16:41;-1.20;99.90
17053;DHT22;8643;48.824;11.422;2023-01-16T04:19:12;-1.50;99.90
17053;DHT22;8643;48.824;11.422;2023-01-16T04:24:16;-1.40;99.90
17053;DHT22;8643;48.824;11.422;2023-01-16T04:29:14;-2.10;99.90
17053;DHT22;8643;48.824;11.422;2023-01-16T04:39:08;-1.60;99.90
17053;DHT22;8643;48.824;11.422;2023-01-16T04:41:38;-1.50;99.90
17053;DHT22;8643;48.824;11.422;2023-01-16T04:51:35;-1.40;99.90
17053;DHT22;8643;48.824;11.422;2023-01-16T04:54:05;-1.40;99.90
17053;DHT22;8643;48.824;11.422;2023-01-16T04:59:05;-1.40;99.90
17053;DHT22;8643;48.824;11.422;2023-01-16T05:04:05;-1.40;99.90
17053;DHT22;8643;48.824;11.422;2023-01-16T05:06:35;-1.40;99.90
17053;DHT22;8643;48.824;11.422;2023-01-16T05:09:05;-1.60;99.90
17053;DHT22;8643;48.824;11.422;2023-01-16T05:14:05;-1.50;99.90
17053;DHT22;8643;48.824;11.422;2023-01-16T05:33:58;-1.50;99.90
17053;DHT22;8643;48.824;11.422;2023-01-16T05:48:52;-1.70;99.90
17053;DHT22;8643;48.824;11.422;2023-01-16T05:53:50;-1.50;99.90
17053;DHT22;8643;48.824;11.422;2023-01-16T05:58:49;-1.60;99.90
17053;DHT22;8643;48.824;11.422;2023-01-16T06:06:16;-1.70;99.90
17053;DHT22;8643;48.824;11.422;2023-01-16T06:08:46;0.40;99.90
17053;DHT22;8643;48.824;11.422;2023-01-16T06:11:14;0.70;99.90
17053;DHT22;8643;48.824;11.422;2023-01-16T06:23:40;-1.60;99.90
17053;DHT22;8643;48.824;11.422;2023-01-16T06:31:06;-1.90;99.90
17053;DHT22;8643;48.824;11.422;2023-01-16T06:41:04;-1.90;99.90
17053;DHT22;8643;48.824;11.422;2023-01-16T06:46:01;-1.70;99.90
17053;DHT22;8643;48.824;11.422;2023-01-16T06:48:30;-1.90;99.90
17053;DHT22;8643;48.824;11.422;2023-01-16T06:58:27;-1.70;99.90
17053;DHT22;8643;48.824;11.422;2023-01-16T07:13:18;-1.30;99.90
17053;DHT22;8643;48.824;11.422;2023-01-16T07:26:53;-1.00;99.90
17053;DHT22;8643;48.824;11.422;2023-01-16T07:44:24;-0.20;99.90
17053;DHT22;8643;48.824;11.422;2023-01-16T08:04:18;0.50;99.90
17053;DHT22;8643;48.824;11.422;2023-01-16T08:14:14;1.20;99.90
17053;DHT22;8643;48.824;11.422;2023-01-16T08:21:41;1.90;99.90
17053;DHT22;8643;48.824;11.422;2023-01-16T08:24:10;2.10;99.90
17053;DHT22;8643;48.824;11.422;2023-01-16T08:31:40;2.00;99.90
17053;DHT22;8643;48.824;11.422;2023-01-16T08:34:08;1.80;99.90
17053;DHT22;8643;48.824;11.422;2023-01-16T08:41:38;1.70;99.90
17053;DHT22;8643;48.824;11.422;2023-01-16T08:47:12;1.60;99.90
17053;DHT22;8643;48.824;11.422;2023-01-16T08:52:46;1.70;99.90
17053;DHT22;8643;48.824;11.422;2023-01-16T08:55:15;1.70;99.90
17053;DHT22;8643;48.824;11.422;2023-01-16T08:57:44;1.70;99.90
17053;DHT22;8643;48.824;11.422;2023-01-16T09:02:41;1.80;99.90
17053;DHT22;8643;48.824;11.422;2023-01-16T09:07:39;1.80;99.90
17053;DHT22;8643;48.824;11.422;2023-01-16T09:12:40;2.00;99.90
17053;DHT22;8643;48.824;11.422;2023-01-16T09:22:56;2.10;99.90
17053;DHT22;8643;48.824;11.422;2023-01-16T09:27:56;2.20;99.90
17053;DHT22;8643;48.824;11.422;2023-01-16T09:32:53;2.20;99.90
17053;DHT22;8643;48.824;11.422;2023-01-16T09:43:01;2.60;99.90
17053;DHT22;8643;48.824;11.422;2023-01-16T09:46:04;2.50;99.90
17053;DHT22;8643;48.824;11.422;2023-01-16T09:48:42;2.50;99.90
17053;DHT22;8643;48.824;11.422;2023-01-16T09:51:19;2.60;99.90
17053;DHT22;8643;48.824;11.422;2023-01-16T09:53:56;2.70;99.90
17053;DHT22;8643;48.824;11.422;2023-01-16T09:59:41;2.60;99.90
17053;DHT22;8643;48.824;11.422;2023-01-16T10:04:49;2.80;99.90
17053;DHT22;8643;48.824;11.422;2023-01-16T10:07:50;2.90;99.90
17053;DHT22;8643;48.824;11.422;2023-01-16T10:13:36;3.30;99.90
17053;DHT22;8643;48.824;11.422;2023-01-16T10:21:47;3.70;99.90
17053;DHT22;8643;48.824;11.422;2023-01-16T10:24:29;3.60;99.90
17053;DHT22;8643;48.824;11.422;2023-01-16T10:32:28;3.60;99.90
17053;DHT22;8643;48.824;11.422;2023-01-16T10:35:03;3.80;99.90
17053;DHT22;8643;48.824;11.422;2023-01-16T10:40:12;4.30;99.90
17053;DHT22;8643;48.824;11.422;2023-01-16T10:42:45;4.30;99.90
17053;DHT22;8643;48.824;11.422;2023-01-16T10:45:36;4.40;99.90
17053;DHT22;8643;48.824;11.422;2023-01-16T10:48:27;4.60;99.90
17053;DHT22;8643;48.824;11.422;2023-01-16T11:01:13;4.90;99.90
17053;DHT22;8643;48.824;11.422;2023-01-16T11:03:47;4.90;99.90
17053;DHT22;8643;48.824;11.422;2023-01-16T11:06:19;5.10;99.90
17053;DHT22;8643;48.824;11.422;2023-01-16T11:08:52;5.20;99.90
17053;DHT22;8643;48.824;11.422;2023-01-16T11:14:12;5.40;99.90
17053;DHT22;8643;48.824;11.422;2023-01-16T11:22:44;5.40;99.90
17053;DHT22;8643;48.824;11.422;2023-01-16T11:25:17;5.30;99.90
17053;DHT22;8643;48.824;11.422;2023-01-16T11:27:49;5.30;99.90
17053;DHT22;8643;48.824;11.422;2023-01-16T11:30:21;5.20;99.90
17053;DHT22;8643;48.824;11.422;2023-01-16T11:32:56;5.00;99.90
17053;DHT22;8643;48.824;11.422;2023-01-16T11:40:43;4.90;99.90
17053;DHT22;8643;48.824;11.422;2023-01-16T11:51:27;5.40;99.90
17053;DHT22;8643;48.824;11.422;2023-01-16T11:53:59;5.50;99.90
17053;DHT22;8643;48.824;11.422;2023-01-16T11:56:41;5.70;99.90
17053;DHT22;8643;48.824;11.422;2023-01-16T12:02:24;5.40;99.90
17053;DHT22;8643;48.824;11.422;2023-01-16T12:05:13;5.20;99.90
17053;DHT22;8643;48.824;11.422;2023-01-16T12:08:22;5.20;99.90
17053;DHT22;8643;48.824;11.422;2023-01-16T12:11:07;5.30;99.90
17053;DHT22;8643;48.824;11.422;2023-01-16T12:13:41;5.30;99.90
17053;DHT22;8643;48.824;11.422;2023-01-16T12:16:46;5.40;99.90
17053;DHT22;8643;48.824;11.422;2023-01-16T12:19:57;5.50;99.90
17053;DHT22;8643;48.824;11.422;2023-01-16T12:25:29;6.00;99.90
17053;DHT22;8643;48.824;11.422;2023-01-16T12:28:14;6.20;99.90
17053;DHT22;8643;48.824;11.422;2023-01-16T12:33:53;6.60;99.90
17053;DHT22;8643;48.824;11.422;2023-01-16T12:36:34;6.70;99.90
17053;DHT22;8643;48.824;11.422;2023-01-16T12:39:20;6.60;99.90
17053;DHT22;8643;48.824;11.422;2023-01-16T12:42:02;6.50;99.90
17053;DHT22;8643;48.824;11.422;2023-01-16T12:47:48;6.30;99.90
17053;DHT22;8643;48.824;11.422;2023-01-16T12:53:24;6.00;99.90
17053;DHT22;8643;48.824;11.422;2023-01-16T12:58:50;5.90;99.90
17053;DHT22;8643;48.824;11.422;2023-01-16T13:01:25;5.80;99.90
17053;DHT22;8643;48.824;11.422;2023-01-16T13:03:59;5.70;99.90
17053;DHT22;8643;48.824;11.422;2023-01-16T13:06:41;5.70;99.90
17053;DHT22;8643;48.824;11.422;2023-01-16T13:09:17;5.60;99.90
17053;DHT22;8643;48.824;11.422;2023-01-16T13:12:01;5.60;99.90
17053;DHT22;8643;48.824;11.422;2023-01-16T13:15:05;5.60;99.90
17053;DHT22;8643;48.824;11.422;2023-01-16T13:20:14;5.80;99.90
17053;DHT22;8643;48.824;11.422;2023-01-16T13:25:23;5.60;99.90
17053;DHT22;8643;48.824;11.422;2023-01-16T13:28:00;5.50;99.90
17053;DHT22;8643;48.824;11.422;2023-01-16T13:35:38;5.50;99.90
17053;DHT22;8643;48.824;11.422;2023-01-16T13:38:39;5.50;99.90
17053;DHT22;8643;48.824;11.422;2023-01-16T13:41:21;5.60;99.90
17053;DHT22;8643;48.824;11.422;2023-01-16T13:43:57;5.70;99.90
17053;DHT22;8643;48.824;11.422;2023-01-16T13:46:48;5.60;99.90
17053;DHT22;8643;48.824;11.422;2023-01-16T13:49:19;5.70;99.90
17053;DHT22;8643;48.824;11.422;2023-01-16T13:59:37;5.70;99.90
17053;DHT22;8643;48.824;11.422;2023-01-16T14:08:26;5.50;99.90
17053;DHT22;8643;48.824;11.422;2023-01-16T14:11:38;5.30;99.90
17053;DHT22;8643;48.824;11.422;2023-01-16T14:14:33;5.30;99.90
17053;DHT22;8643;48.824;11.422;2023-01-16T14:18:12;5.20;99.90
17053;DHT22;8643;48.824;11.422;2023-01-16T14:23:24;5.10;99.90
17053;DHT22;8643;48.824;11.422;2023-01-16T14:26:17;4.90;99.90
17053;DHT22;8643;48.824;11.422;2023-01-16T14:31:24;4.90;99.90
17053;DHT22;8643;48.824;11.422;2023-01-16T14:41:31;4.70;99.90
17053;DHT22;8643;48.824;11.422;2023-01-16T14:44:20;4.60;99.90
17053;DHT22;8643;48.824;11.422;2023-01-16T14:47:24;4.30;99.90
17053;DHT22;8643;48.824;11.422;2023-01-16T14:50:14;4.40;99.90
17053;DHT22;8643;48.824;11.422;2023-01-16T14:53:16;4.30;99.90
17053;DHT22;8643;48.824;11.422;2023-01-16T14:58:55;4.20;99.90
17053;DHT22;8643;48.824;11.422;2023-01-16T15:01:34;4.10;99.90
17053;DHT22;8643;48.824;11.422;2023-01-16T15:04:30;4.00;99.90
17053;DHT22;8643;48.824;11.422;2023-01-16T15:07:10;3.90;99.90
17053;DHT22;8643;48.824;11.422;2023-01-16T15:12:13;3.80;99.90
17053;DHT22;8643;48.824;11.422;2023-01-16T15:17:28;3.70;99.90
17053;DHT22;8643;48.824;11.422;2023-01-16T15:23:25;3.60;99.90
17053;DHT22;8643;48.824;11.422;2023-01-16T15:29:47;3.60;99.90
17053;DHT22;8643;48.824;11.422;2023-01-16T15:35:04;3.40;99.90
17053;DHT22;8643;48.824;11.422;2023-01-16T15:40:26;3.30;99.90
17053;DHT22;8643;48.824;11.422;2023-01-16T15:42:56;3.20;99.90
17053;DHT22;8643;48.824;11.422;2023-01-16T15:45:47;3.10;99.90
17053;DHT22;8643;48.824;11.422;2023-01-16T15:48:42;2.90;99.90
17053;DHT22;8643;48.824;11.422;2023-01-16T15:54:12;2.70;99.90
17053;DHT22;8643;48.824;11.422;2023-01-16T15:59:24;2.50;99.90
17053;DHT22;8643;48.824;11.422;2023-01-16T16:04:36;2.30;99.90
17053;DHT22;8643;48.824;11.422;2023-01-16T16:09:34;2.50;99.90
17053;DHT22;8643;48.824;11.422;2023-01-16T16:12:05;2.60;99.90
17053;DHT22;8643;48.824;11.422;2023-01-16T16:17:24;2.80;99.90
17053;DHT22;8643;48.824;11.422;2023-01-16T16:23:03;3.60;99.90
17053;DHT22;8643;48.824;11.422;2023-01-16T16:33:27;3.50;99.90
17053;DHT22;8643;48.824;11.422;2023-01-16T16:41:42;3.10;99.90
17053;DHT22;8643;48.824;11.422;2023-01-16T16:44:36;2.90;99.90
17053;DHT22;8643;48.824;11.422;2023-01-16T16:52:34;2.50;99.90
17053;DHT22;8643;48.824;11.422;2023-01-16T16:55:26;2.30;99.90
17053;DHT22;8643;48.824;11.422;2023-01-16T16:57:59;2.10;99.90
17053;DHT22;8643;48.824;11.422;2023-01-16T17:00:33;1.90;99.90
17053;DHT22;8643;48.824;11.422;2023-01-16T17:10:41;2.70;99.90
17053;DHT22;8643;48.824;11.422;2023-01-16T17:15:41;1.80;99.90
17053;DHT22;8643;48.824;11.422;2023-01-16T17:20:39;2.10;99.90
17053;DHT22;8643;48.824;11.422;2023-01-16T17:23:10;2.00;99.90
17053;DHT22;8643;48.824;11.422;2023-01-16T17:35:44;2.10;99.90
17053;DHT22;8643;48.824;11.422;2023-01-16T17:38:15;2.10;99.90
17053;DHT22;8643;48.824;11.422;2023-01-16T17:43:15;2.20;99.90
17053;DHT22;8643;48.824;11.422;2023-01-16T17:48:36;2.30;99.90
17053;DHT22;8643;48.824;11.422;2023-01-16T17:56:05;2.30;99.90
17053;DHT22;8643;48.824;11.422;2023-01-16T17:58:36;2.20;99.90
17053;DHT22;8643;48.824;11.422;2023-01-16T18:01:23;2.20;99.90
17053;DHT22;8643;48.824;11.422;2023-01-16T18:06:26;2.00;99.90
17053;DHT22;8643;48.824;11.422;2023-01-16T18:22:14;2.30;99.90
17053;DHT22;8643;48.824;11.422;2023-01-16T18:24:44;2.30;99.90
17053;DHT22;8643;48.824;11.422;2023-01-16T18:27:14;2.30;99.90
17053;DHT22;8643;48.824;11.422;2023-01-16T18:29:45;1.00;99.90
17053;DHT22;8643;48.824;11.422;2023-01-16T18:34:51;2.30;99.90
17053;DHT22;8643;48.824;11.422;2023-01-16T18:37:30;2.30;99.90
17053;DHT22;8643;48.824;11.422;2023-01-16T18:45:32;2.20;99.90
17053;DHT22;8643;48.824;11.422;2023-01-16T18:48:20;2.20;99.90
17053;DHT22;8643;48.824;11.422;2023-01-16T18:51:10;2.20;99.90
17053;DHT22;8643;48.824;11.422;2023-01-16T18:53:57;2.30;99.90
17053;DHT22;8643;48.824;11.422;2023-01-16T19:02:44;2.60;99.90
17053;DHT22;8643;48.824;11.422;2023-01-16T19:05:15;2.70;99.90
17053;DHT22;8643;48.824;11.422;2023-01-16T19:07:46;2.90;99.90
17053;DHT22;8643;48.824;11.422;2023-01-16T19:10:19;3.20;99.90
17053;DHT22;8643;48.824;11.422;2023-01-16T19:12:51;3.60;99.90
17053;DHT22;8643;48.824;11.422;2023-01-16T19:20:22;4.20;99.90
17053;DHT22;8643;48.824;11.422;2023-01-16T19:22:50;4.20;99.90
17053;DHT22;8643;48.824;11.422;2023-01-16T19:27:49;4.40;99.90
17053;DHT22;8643;48.824;11.422;2023-01-16T19:35:15;4.30;99.90
17053;DHT22;8643;48.824;11.422;2023-01-16T19:37:45;4.20;99.90
17053;DHT22;8643;48.824;11.422;2023-01-16T19:40:14;4.20;99.90
17053;DHT22;8643;48.824;11.422;2023-01-16T19:45:31;4.20;99.90
17053;DHT22;8643;48.824;11.422;2023-01-16T19:48:18;4.10;99.90
17053;DHT22;8643;48.824;11.422;2023-01-16T19:50:47;4.20;99.90
17053;DHT22;8643;48.824;11.422;2023-01-16T20:08:28;4.00;99.90
17053;DHT22;8643;48.824;11.422;2023-01-16T20:16:06;4.10;99.90
17053;DHT22;8643;48.824;11.422;2023-01-16T20:18:36;4.10;99.90
17053;DHT22;8643;48.824;11.422;2023-01-16T20:21:06;4.10;99.90
17053;DHT22;8643;48.824;11.422;2023-01-16T20:23:36;4.10;99.90
17053;DHT22;8643;48.824;11.422;2023-01-16T20:26:06;4.00;99.90
17053;DHT22;8643;48.824;11.422;2023-01-16T20:36:03;4.00;99.90
17053;DHT22;8643;48.824;11.422;2023-01-16T20:56:41;4.10;99.90
17053;DHT22;8643;48.824;11.422;2023-01-16T21:06:39;4.10;99.90
17053;DHT22;8643;48.824;11.422;2023-01-16T21:09:08;4.10;99.90
17053;DHT22;8643;48.824;11.422;2023-01-16T21:14:24;4.10;99.90
17053;DHT22;8643;48.824;11.422;2023-01-16T21:19:39;4.10;99.90
17053;DHT22;8643;48.824;11.422;2023-01-16T21:27:27;4.20;99.90
17053;DHT22;8643;48.824;11.422;2023-01-16T21:29:59;4.20;99.90
17053;DHT22;8643;48.824;11.422;2023-01-16T21:32:29;4.30;99.90
17053;DHT22;8643;48.824;11.422;2023-01-16T21:37:27;4.20;99.90
17053;DHT22;8643;48.824;11.422;2023-01-16T21:39:57;4.20;99.90
17053;DHT22;8643;48.824;11.422;2023-01-16T21:42:27;4.20;99.90
17053;DHT22;8643;48.824;11.422;2023-01-16T21:50:37;4.20;99.90
17053;DHT22;8643;48.824;11.422;2023-01-16T21:58:10;4.10;99.90
17053;DHT22;8643;48.824;11.422;2023-01-16T22:08:09;4.00;99.90
17053;DHT22;8643;48.824;11.422;2023-01-16T22:13:26;3.80;99.90
17053;DHT22;8643;48.824;11.422;2023-01-16T22:16:15;3.90;99.90
17053;DHT22;8643;48.824;11.422;2023-01-16T22:19:04;3.80;99.90
17053;DHT22;8643;48.824;11.422;2023-01-16T22:31:49;3.50;99.90
17053;DHT22;8643;48.824;11.422;2023-01-16T22:41:46;3.40;99.90
17053;DHT22;8643;48.824;11.422;2023-01-16T22:47:02;3.40;99.90
17053;DHT22;8643;48.824;11.422;2023-01-16T22:54:30;3.40;99.90
17053;DHT22;8643;48.824;11.422;2023-01-16T22:59:27;4.00;99.90
17053;DHT22;8643;48.824;11.422;2023-01-16T23:04:26;3.30;99.90
17053;DHT22;8643;48.824;11.422;2023-01-16T23:06:55;3.20;99.90
17053;DHT22;8643;48.824;11.422;2023-01-16T23:14:24;3.20;99.90
17053;DHT22;8643;48.824;11.422;2023-01-16T23:16:56;3.20;99.90
17053;DHT22;8643;48.824;11.422;2023-01-16T23:19:29;3.20;99.90
17053;DHT22;8643;48.824;11.422;2023-01-16T23:21:59;3.20;99.90
17053;DHT22;8643;48.824;11.422;2023-01-16T23:24:29;3.20;99.90
17053;DHT22;8643;48.824;11.422;2023-01-16T23:27:00;3.20;99.90
17053;DHT22;8643;48.824;11.422;2023-01-16T23:34:29;3.20;99.90
17053;DHT22;8643;48.824;11.422;2023-01-16T23:47:11;3.20;99.90
17053;DHT22;8643;48.824;11.422;2023-01-16T23:49:44;3.10;99.90
17053;DHT22;8643;48.824;11.422;2023-01-16T23:52:17;3.20;99.90
17053;DHT22;8643;48.824;11.422;2023-01-16T23:57:17;3.10;99.90
17053;DHT22;8643;48.824;11.422;2023-01-16T23:59:47;3.20;99.90
